UKL50E LBBG-UKON
Flight info
| Callsign | UKL50E |
|---|---|
| Flight time | N/A |
| Altitude | 36000 |
| Route | XILTI3V/22 XILTI L743 REVDA/N0443F350 DCT OSDOR/K0817F370 L743 KOSAK |
| Aircraft | A306/H-SDE3FGHIRWY/LB1 |
Departure
| Time | 2026-05-08 06:59 |
|---|---|
| Airport | Burgas Airport (LBBG) |
Arrival
| Time | N/A |
|---|---|
| Airport | UKON |
| Time | Latitude | Longitude | Altitude | Speed | Heading |
|---|---|---|---|---|---|
| 2026-05-08 06:36 | 42.56848 | 27.51708 | 147 ft | 0 kts | 103° |
| 2026-05-08 06:53 | 42.56848 | 27.51711 | 147 ft | 3 kts | 103° |
| 2026-05-08 06:54 | 42.56841 | 27.51770 | 147 ft | 10 kts | 95° |
| 2026-05-08 06:54 | 42.56866 | 27.51853 | 148 ft | 9 kts | 50° |
| 2026-05-08 06:54 | 42.56925 | 27.51928 | 148 ft | 16 kts | 42° |
| 2026-05-08 06:54 | 42.57037 | 27.52053 | 150 ft | 26 kts | 39° |
| 2026-05-08 06:55 | 42.57195 | 27.52233 | 152 ft | 31 kts | 40° |
| 2026-05-08 06:55 | 42.57351 | 27.52411 | 154 ft | 28 kts | 39° |
| 2026-05-08 06:55 | 42.57496 | 27.52573 | 156 ft | 26 kts | 41° |
| 2026-05-08 06:55 | 42.57624 | 27.52725 | 158 ft | 24 kts | 40° |
| 2026-05-08 06:56 | 42.57749 | 27.52856 | 160 ft | 22 kts | 36° |
| 2026-05-08 06:56 | 42.57829 | 27.52958 | 161 ft | 7 kts | 41° |
| 2026-05-08 06:56 | 42.57834 | 27.52966 | 161 ft | 5 kts | 41° |
| 2026-05-08 06:56 | 42.57884 | 27.53022 | 162 ft | 9 kts | 39° |
| 2026-05-08 06:57 | 42.57936 | 27.53059 | 162 ft | 7 kts | 15° |
| 2026-05-08 06:57 | 42.57956 | 27.53059 | 162 ft | 0 kts | 357° |
| 2026-05-08 06:57 | 42.57994 | 27.53035 | 162 ft | 11 kts | 311° |
| 2026-05-08 06:57 | 42.58010 | 27.52893 | 160 ft | 17 kts | 263° |
| 2026-05-08 06:58 | 42.57895 | 27.52688 | 159 ft | 53 kts | 224° |
| 2026-05-08 06:58 | 42.57449 | 27.52100 | 154 ft | 123 kts | 224° |
| 2026-05-08 06:58 | 42.56689 | 27.51088 | 148 ft | 182 kts | 224° |
| 2026-05-08 06:58 | 42.55724 | 27.49852 | 723 ft | 200 kts | 222° |
| 2026-05-08 06:59 | 42.54600 | 27.48633 | 1642 ft | 212 kts | 212° |
| 2026-05-08 06:59 | 42.53105 | 27.47953 | 1944 ft | 253 kts | 181° |
| 2026-05-08 06:59 | 42.51422 | 27.48738 | 2765 ft | 264 kts | 143° |
| 2026-05-08 06:59 | 42.50374 | 27.50750 | 3809 ft | 266 kts | 108° |
| 2026-05-08 07:00 | 42.50103 | 27.53268 | 4889 ft | 268 kts | 97° |
| 2026-05-08 07:00 | 42.49825 | 27.55744 | 5899 ft | 271 kts | 103° |
| 2026-05-08 07:00 | 42.49343 | 27.58235 | 6933 ft | 276 kts | 108° |
| 2026-05-08 07:00 | 42.48710 | 27.60713 | 7921 ft | 282 kts | 112° |
| 2026-05-08 07:01 | 42.47975 | 27.63210 | 8875 ft | 289 kts | 114° |
| 2026-05-08 07:01 | 42.47177 | 27.65737 | 9822 ft | 295 kts | 114° |
| 2026-05-08 07:01 | 42.46439 | 27.68372 | 10554 ft | 308 kts | 109° |
| 2026-05-08 07:01 | 42.45750 | 27.71228 | 10911 ft | 330 kts | 108° |
| 2026-05-08 07:02 | 42.45167 | 27.74333 | 11231 ft | 351 kts | 97° |
| 2026-05-08 07:02 | 42.45333 | 27.77700 | 11529 ft | 369 kts | 73° |
| 2026-05-08 07:02 | 42.46489 | 27.80831 | 12062 ft | 377 kts | 54° |
| 2026-05-08 07:02 | 42.48047 | 27.83704 | 12744 ft | 381 kts | 51° |
| 2026-05-08 07:03 | 42.49655 | 27.86585 | 13432 ft | 385 kts | 51° |
| 2026-05-08 07:03 | 42.51264 | 27.89501 | 14088 ft | 389 kts | 51° |
| 2026-05-08 07:03 | 42.52881 | 27.92462 | 14687 ft | 393 kts | 52° |
| 2026-05-08 07:03 | 42.54509 | 27.95465 | 15287 ft | 397 kts | 52° |
| 2026-05-08 07:04 | 42.56145 | 27.98497 | 15904 ft | 401 kts | 52° |
| 2026-05-08 07:04 | 42.57799 | 28.01569 | 16519 ft | 405 kts | 52° |
| 2026-05-08 07:04 | 42.59464 | 28.04668 | 17132 ft | 408 kts | 52° |
| 2026-05-08 07:04 | 42.61143 | 28.07797 | 17752 ft | 412 kts | 52° |
| 2026-05-08 07:05 | 42.62839 | 28.10963 | 18339 ft | 416 kts | 52° |
| 2026-05-08 07:05 | 42.64592 | 28.14114 | 18846 ft | 420 kts | 50° |
| 2026-05-08 07:05 | 42.66455 | 28.17188 | 19344 ft | 423 kts | 48° |
| 2026-05-08 07:05 | 42.67729 | 28.19204 | 19669 ft | 426 kts | 47° |
| 2026-05-08 07:06 | 42.69686 | 28.22238 | 20151 ft | 429 kts | 47° |
| 2026-05-08 07:06 | 42.71673 | 28.25291 | 20629 ft | 432 kts | 47° |
| 2026-05-08 07:06 | 42.73671 | 28.28366 | 21107 ft | 436 kts | 47° |
| 2026-05-08 07:06 | 42.76337 | 28.32495 | 21719 ft | 440 kts | 47° |
| 2026-05-08 07:07 | 42.78356 | 28.35643 | 22179 ft | 444 kts | 47° |
| 2026-05-08 07:07 | 42.80390 | 28.38826 | 22623 ft | 447 kts | 47° |
| 2026-05-08 07:07 | 42.81769 | 28.40992 | 22914 ft | 449 kts | 47° |
| 2026-05-08 07:07 | 42.83819 | 28.44214 | 23345 ft | 452 kts | 47° |
| 2026-05-08 07:08 | 42.85910 | 28.47432 | 23745 ft | 455 kts | 44° |
| 2026-05-08 07:08 | 42.88296 | 28.50255 | 24112 ft | 454 kts | 33° |
| 2026-05-08 07:08 | 42.90951 | 28.52579 | 24521 ft | 454 kts | 29° |
| 2026-05-08 07:08 | 42.93699 | 28.54716 | 24870 ft | 455 kts | 26° |
| 2026-05-08 07:09 | 42.96497 | 28.56740 | 25212 ft | 456 kts | 25° |
| 2026-05-08 07:09 | 42.99328 | 28.58720 | 25546 ft | 458 kts | 25° |
| 2026-05-08 07:09 | 43.02177 | 28.60695 | 25866 ft | 460 kts | 24° |
| 2026-05-08 07:09 | 43.05037 | 28.62687 | 26197 ft | 462 kts | 25° |
| 2026-05-08 07:10 | 43.07901 | 28.64697 | 26506 ft | 464 kts | 25° |
| 2026-05-08 07:10 | 43.10739 | 28.66705 | 26823 ft | 465 kts | 25° |
| 2026-05-08 07:10 | 43.13650 | 28.68778 | 27131 ft | 467 kts | 25° |
| 2026-05-08 07:10 | 43.16538 | 28.70842 | 27427 ft | 469 kts | 25° |
| 2026-05-08 07:11 | 43.19392 | 28.72886 | 27710 ft | 470 kts | 25° |
| 2026-05-08 07:11 | 43.22292 | 28.74966 | 27993 ft | 472 kts | 25° |
| 2026-05-08 07:11 | 43.25203 | 28.77057 | 28255 ft | 473 kts | 25° |
| 2026-05-08 07:11 | 43.28127 | 28.79159 | 28521 ft | 475 kts | 25° |
| 2026-05-08 07:12 | 43.31061 | 28.81268 | 28805 ft | 476 kts | 25° |
| 2026-05-08 07:12 | 43.33988 | 28.83375 | 29196 ft | 474 kts | 25° |
| 2026-05-08 07:12 | 43.36901 | 28.85475 | 29606 ft | 473 kts | 25° |
| 2026-05-08 07:12 | 43.39810 | 28.87573 | 29979 ft | 472 kts | 25° |
| 2026-05-08 07:13 | 43.42719 | 28.89673 | 30260 ft | 473 kts | 25° |
| 2026-05-08 07:13 | 43.45626 | 28.91774 | 30589 ft | 471 kts | 25° |
| 2026-05-08 07:13 | 43.48525 | 28.93873 | 30939 ft | 469 kts | 25° |
| 2026-05-08 07:13 | 43.51409 | 28.95963 | 31311 ft | 468 kts | 25° |
| 2026-05-08 07:14 | 43.54278 | 28.98045 | 31661 ft | 466 kts | 25° |
| 2026-05-08 07:14 | 43.57147 | 29.00127 | 31995 ft | 465 kts | 25° |
| 2026-05-08 07:14 | 43.60009 | 29.02206 | 32263 ft | 466 kts | 25° |
| 2026-05-08 07:14 | 43.62873 | 29.04289 | 32610 ft | 464 kts | 25° |
| 2026-05-08 07:15 | 43.65720 | 29.06364 | 32983 ft | 462 kts | 25° |
| 2026-05-08 07:15 | 43.68560 | 29.08435 | 33357 ft | 460 kts | 25° |
| 2026-05-08 07:15 | 43.71388 | 29.10500 | 33723 ft | 459 kts | 25° |
| 2026-05-08 07:15 | 43.74206 | 29.12558 | 34053 ft | 458 kts | 25° |
| 2026-05-08 07:16 | 43.77027 | 29.14621 | 34271 ft | 459 kts | 25° |
| 2026-05-08 07:16 | 43.79848 | 29.16687 | 34511 ft | 459 kts | 25° |
| 2026-05-08 07:16 | 43.82669 | 29.18754 | 34744 ft | 459 kts | 25° |
| 2026-05-08 07:16 | 43.85490 | 29.20824 | 34976 ft | 459 kts | 25° |
| 2026-05-08 07:17 | 43.88313 | 29.22898 | 35219 ft | 459 kts | 25° |
| 2026-05-08 07:17 | 43.91134 | 29.24972 | 35466 ft | 459 kts | 25° |
| 2026-05-08 07:17 | 43.93967 | 29.27057 | 35592 ft | 462 kts | 25° |
| 2026-05-08 07:17 | 43.96804 | 29.29148 | 35830 ft | 462 kts | 25° |
| 2026-05-08 07:18 | 43.99643 | 29.31243 | 36053 ft | 462 kts | 25° |
| 2026-05-08 07:18 | 44.02472 | 29.33334 | 36116 ft | 457 kts | 25° |
| 2026-05-08 07:18 | 44.05240 | 29.35385 | 36119 ft | 445 kts | 25° |
| 2026-05-08 07:18 | 44.07951 | 29.37398 | 36134 ft | 440 kts | 26° |
| 2026-05-08 07:19 | 44.13338 | 29.41391 | 36126 ft | 439 kts | 25° |
| 2026-05-08 07:19 | 44.18726 | 29.45387 | 36125 ft | 439 kts | 25° |
| 2026-05-08 07:20 | 44.24112 | 29.49394 | 36124 ft | 439 kts | 25° |
| 2026-05-08 07:20 | 44.29494 | 29.53408 | 36129 ft | 439 kts | 26° |
| 2026-05-08 07:21 | 44.34886 | 29.57440 | 36130 ft | 440 kts | 26° |
| 2026-05-08 07:21 | 44.40274 | 29.61477 | 36133 ft | 439 kts | 26° |
| 2026-05-08 07:22 | 44.45660 | 29.65521 | 36130 ft | 439 kts | 26° |
| 2026-05-08 07:22 | 44.51010 | 29.69545 | 36134 ft | 439 kts | 26° |
| 2026-05-08 07:23 | 44.56423 | 29.73626 | 36133 ft | 439 kts | 26° |
| 2026-05-08 07:23 | 44.61766 | 29.77664 | 36144 ft | 439 kts | 26° |
| 2026-05-08 07:24 | 44.67135 | 29.81731 | 36134 ft | 438 kts | 26° |
| 2026-05-08 07:24 | 44.72500 | 29.85800 | 36138 ft | 438 kts | 26° |
| 2026-05-08 07:25 | 44.77859 | 29.89874 | 36141 ft | 438 kts | 26° |
| 2026-05-08 07:26 | 44.85896 | 29.96001 | 36140 ft | 438 kts | 26° |
| 2026-05-08 07:26 | 44.91256 | 30.00098 | 36140 ft | 438 kts | 26° |
| 2026-05-08 07:27 | 44.96592 | 30.04248 | 36143 ft | 439 kts | 31° |
| 2026-05-08 07:27 | 45.01482 | 30.09416 | 36138 ft | 439 kts | 37° |
| 2026-05-08 07:28 | 45.06222 | 30.14865 | 36141 ft | 439 kts | 38° |
| 2026-05-08 07:28 | 45.10930 | 30.20377 | 36140 ft | 439 kts | 38° |
| 2026-05-08 07:29 | 45.15637 | 30.25890 | 36140 ft | 439 kts | 38° |
| 2026-05-08 07:29 | 45.20351 | 30.31403 | 36140 ft | 439 kts | 38° |
| 2026-05-08 07:30 | 45.25058 | 30.36912 | 36144 ft | 439 kts | 38° |
| 2026-05-08 07:30 | 45.29771 | 30.42440 | 36148 ft | 441 kts | 38° |
| 2026-05-08 07:31 | 45.34570 | 30.48079 | 36153 ft | 454 kts | 38° |
| 2026-05-08 07:31 | 45.39481 | 30.53865 | 36148 ft | 459 kts | 38° |
| 2026-05-08 07:32 | 45.44397 | 30.59675 | 35836 ft | 459 kts | 38° |
| 2026-05-08 07:32 | 45.46845 | 30.62573 | 35592 ft | 457 kts | 38° |
| 2026-05-08 07:32 | 45.49287 | 30.65469 | 35335 ft | 455 kts | 38° |
| 2026-05-08 07:32 | 45.51678 | 30.68307 | 35032 ft | 451 kts | 38° |
| 2026-05-08 07:33 | 45.54080 | 30.71161 | 34483 ft | 448 kts | 38° |
| 2026-05-08 07:33 | 45.56463 | 30.73995 | 33846 ft | 445 kts | 37° |
| 2026-05-08 07:33 | 45.58836 | 30.76818 | 33234 ft | 442 kts | 38° |
| 2026-05-08 07:33 | 45.61182 | 30.79614 | 32644 ft | 438 kts | 38° |
| 2026-05-08 07:34 | 45.63508 | 30.82389 | 32075 ft | 434 kts | 38° |
| 2026-05-08 07:34 | 45.65815 | 30.85143 | 31502 ft | 430 kts | 38° |
| 2026-05-08 07:34 | 45.68102 | 30.87878 | 30933 ft | 427 kts | 38° |
| 2026-05-08 07:34 | 45.70369 | 30.90591 | 30413 ft | 423 kts | 38° |
| 2026-05-08 07:35 | 45.72601 | 30.93266 | 30179 ft | 413 kts | 38° |
| 2026-05-08 07:35 | 45.76984 | 30.98528 | 30130 ft | 409 kts | 38° |
| 2026-05-08 07:35 | 45.79154 | 31.01137 | 29577 ft | 406 kts | 38° |
| 2026-05-08 07:36 | 45.81315 | 31.03737 | 29052 ft | 404 kts | 38° |
| 2026-05-08 07:36 | 45.83450 | 31.06309 | 28545 ft | 399 kts | 38° |
| 2026-05-08 07:36 | 45.85572 | 31.08861 | 28043 ft | 396 kts | 37° |
| 2026-05-08 07:36 | 45.87792 | 31.11154 | 27540 ft | 393 kts | 33° |
| 2026-05-08 07:37 | 45.90034 | 31.13372 | 27050 ft | 390 kts | 32° |
| 2026-05-08 07:37 | 45.92278 | 31.15536 | 26598 ft | 387 kts | 32° |
| 2026-05-08 07:37 | 45.94515 | 31.17665 | 26135 ft | 385 kts | 32° |
| 2026-05-08 07:37 | 45.96743 | 31.19776 | 25687 ft | 382 kts | 31° |
| 2026-05-08 07:38 | 45.98953 | 31.21872 | 25255 ft | 379 kts | 31° |
| 2026-05-08 07:38 | 46.01149 | 31.23960 | 24826 ft | 377 kts | 32° |
| 2026-05-08 07:38 | 46.03331 | 31.26040 | 24374 ft | 375 kts | 31° |
| 2026-05-08 07:38 | 46.05495 | 31.28108 | 23943 ft | 373 kts | 32° |
| 2026-05-08 07:39 | 46.07650 | 31.30172 | 23459 ft | 371 kts | 32° |
| 2026-05-08 07:39 | 46.09791 | 31.32226 | 22947 ft | 369 kts | 32° |
| 2026-05-08 07:39 | 46.11919 | 31.34269 | 22454 ft | 366 kts | 33° |
| 2026-05-08 07:39 | 46.13997 | 31.36266 | 21809 ft | 361 kts | 33° |
| 2026-05-08 07:40 | 46.16102 | 31.38292 | 20963 ft | 358 kts | 33° |
| 2026-05-08 07:40 | 46.18138 | 31.40252 | 20182 ft | 355 kts | 33° |
| 2026-05-08 07:40 | 46.20182 | 31.42222 | 19384 ft | 353 kts | 33° |
| 2026-05-08 07:40 | 46.22220 | 31.44186 | 18611 ft | 350 kts | 34° |
| 2026-05-08 07:41 | 46.24234 | 31.46130 | 17834 ft | 346 kts | 34° |
| 2026-05-08 07:41 | 46.26224 | 31.48053 | 16997 ft | 343 kts | 34° |
| 2026-05-08 07:41 | 46.28200 | 31.49964 | 16164 ft | 341 kts | 34° |
| 2026-05-08 07:41 | 46.30159 | 31.51858 | 15530 ft | 336 kts | 33° |
| 2026-05-08 07:42 | 46.32255 | 31.53356 | 15233 ft | 338 kts | 21° |
| 2026-05-08 07:42 | 46.34476 | 31.54485 | 15181 ft | 339 kts | 18° |
| 2026-05-08 07:42 | 46.36733 | 31.55458 | 15116 ft | 335 kts | 16° |
| 2026-05-08 07:42 | 46.38974 | 31.56337 | 14644 ft | 334 kts | 15° |
| 2026-05-08 07:43 | 46.41198 | 31.57172 | 14344 ft | 327 kts | 15° |
| 2026-05-08 07:43 | 46.43385 | 31.57988 | 14037 ft | 322 kts | 15° |
| 2026-05-08 07:43 | 46.45537 | 31.58802 | 13666 ft | 317 kts | 15° |
| 2026-05-08 07:43 | 46.47664 | 31.59619 | 13214 ft | 316 kts | 16° |
| 2026-05-08 07:44 | 46.49788 | 31.60446 | 12732 ft | 316 kts | 15° |
| 2026-05-08 07:44 | 46.51900 | 31.61277 | 12371 ft | 312 kts | 15° |
| 2026-05-08 07:44 | 46.53982 | 31.62098 | 12038 ft | 308 kts | 16° |
| 2026-05-08 07:44 | 46.56045 | 31.62916 | 11576 ft | 308 kts | 16° |
| 2026-05-08 07:45 | 46.58116 | 31.63737 | 11156 ft | 307 kts | 15° |
| 2026-05-08 07:45 | 46.60172 | 31.64552 | 10783 ft | 304 kts | 15° |
| 2026-05-08 07:45 | 46.62198 | 31.65355 | 10421 ft | 301 kts | 15° |
| 2026-05-08 07:45 | 46.64214 | 31.66154 | 10203 ft | 301 kts | 15° |
| 2026-05-08 07:46 | 46.66240 | 31.66958 | 10182 ft | 302 kts | 15° |
| 2026-05-08 07:46 | 46.68264 | 31.67762 | 10172 ft | 301 kts | 15° |
| 2026-05-08 07:46 | 46.70281 | 31.68564 | 10173 ft | 301 kts | 15° |
| 2026-05-08 07:46 | 46.72277 | 31.69358 | 10170 ft | 302 kts | 15° |
| 2026-05-08 07:47 | 46.74334 | 31.70177 | 10173 ft | 302 kts | 15° |
| 2026-05-08 07:47 | 46.76327 | 31.70970 | 10168 ft | 301 kts | 15° |
| 2026-05-08 07:47 | 46.78347 | 31.71773 | 10170 ft | 301 kts | 15° |
| 2026-05-08 07:47 | 46.80369 | 31.72579 | 10175 ft | 302 kts | 16° |
| 2026-05-08 07:48 | 46.82396 | 31.73388 | 10168 ft | 302 kts | 15° |
| 2026-05-08 07:48 | 46.84419 | 31.74196 | 10056 ft | 301 kts | 15° |
| 2026-05-08 07:48 | 46.86438 | 31.75003 | 9649 ft | 299 kts | 15° |
| 2026-05-08 07:48 | 46.88433 | 31.75803 | 9276 ft | 296 kts | 15° |
| 2026-05-08 07:49 | 46.90394 | 31.76590 | 8964 ft | 291 kts | 15° |
| 2026-05-08 07:49 | 46.92326 | 31.77363 | 8662 ft | 286 kts | 15° |
| 2026-05-08 07:49 | 46.94249 | 31.78134 | 8227 ft | 286 kts | 15° |
| 2026-05-08 07:49 | 46.96178 | 31.78907 | 7776 ft | 289 kts | 15° |
| 2026-05-08 07:50 | 46.98095 | 31.79701 | 7480 ft | 284 kts | 19° |
| 2026-05-08 07:50 | 46.99755 | 31.81185 | 7181 ft | 278 kts | 41° |
| 2026-05-08 07:50 | 47.01185 | 31.83091 | 6766 ft | 279 kts | 47° |
| 2026-05-08 07:50 | 47.02486 | 31.85197 | 6402 ft | 278 kts | 51° |
| 2026-05-08 07:51 | 47.03717 | 31.87332 | 6246 ft | 268 kts | 51° |
| 2026-05-08 07:51 | 47.04895 | 31.89391 | 6097 ft | 260 kts | 52° |
| 2026-05-08 07:51 | 47.06049 | 31.91379 | 5984 ft | 252 kts | 51° |
| 2026-05-08 07:51 | 47.07169 | 31.93307 | 5843 ft | 246 kts | 52° |
| 2026-05-08 07:52 | 47.08277 | 31.95209 | 5611 ft | 244 kts | 51° |
| 2026-05-08 07:52 | 47.09379 | 31.97095 | 5353 ft | 243 kts | 52° |
| 2026-05-08 07:52 | 47.10485 | 31.98976 | 5097 ft | 243 kts | 52° |
| 2026-05-08 07:52 | 47.11582 | 32.00836 | 4989 ft | 241 kts | 52° |
| 2026-05-08 07:53 | 47.12685 | 32.02692 | 4822 ft | 242 kts | 52° |
| 2026-05-08 07:53 | 47.13794 | 32.04558 | 4526 ft | 243 kts | 52° |
| 2026-05-08 07:53 | 47.14885 | 32.06391 | 4287 ft | 239 kts | 52° |
| 2026-05-08 07:53 | 47.15971 | 32.08218 | 3916 ft | 237 kts | 51° |
| 2026-05-08 07:54 | 47.17055 | 32.10044 | 3471 ft | 237 kts | 52° |
| 2026-05-08 07:54 | 47.18230 | 32.11740 | 2972 ft | 239 kts | 35° |
| 2026-05-08 07:54 | 47.19802 | 32.12500 | 2537 ft | 239 kts | 1° |
| 2026-05-08 07:54 | 47.21361 | 32.11957 | 2292 ft | 225 kts | 327° |
| 2026-05-08 07:55 | 47.22380 | 32.10399 | 2127 ft | 204 kts | 290° |
| 2026-05-08 07:55 | 47.22562 | 32.08484 | 1992 ft | 181 kts | 252° |
| 2026-05-08 07:55 | 47.22268 | 32.07368 | 1960 ft | 167 kts | 236° |
| 2026-05-08 07:55 | 47.21648 | 32.06060 | 1945 ft | 153 kts | 213° |
| 2026-05-08 07:56 | 47.20695 | 32.05673 | 1984 ft | 140 kts | 174° |
| 2026-05-08 07:56 | 47.19784 | 32.06130 | 1921 ft | 140 kts | 157° |
| 2026-05-08 07:56 | 47.18932 | 32.06833 | 1424 ft | 141 kts | 153° |
| 2026-05-08 07:56 | 47.18078 | 32.07522 | 1037 ft | 139 kts | 159° |
| 2026-05-08 07:57 | 47.17159 | 32.07999 | 834 ft | 141 kts | 164° |
| 2026-05-08 07:57 | 47.16213 | 32.08411 | 848 ft | 140 kts | 169° |
| 2026-05-08 07:57 | 47.15299 | 32.08090 | 836 ft | 142 kts | 214° |
| 2026-05-08 07:57 | 47.14620 | 32.07014 | 848 ft | 146 kts | 229° |
| 2026-05-08 07:58 | 47.14022 | 32.05786 | 834 ft | 150 kts | 232° |
| 2026-05-08 07:58 | 47.13427 | 32.04526 | 832 ft | 150 kts | 230° |
| 2026-05-08 07:58 | 47.12845 | 32.03266 | 828 ft | 150 kts | 231° |
| 2026-05-08 07:58 | 47.12286 | 32.01992 | 834 ft | 147 kts | 231° |
| 2026-05-08 07:59 | 47.11659 | 32.00827 | 806 ft | 144 kts | 221° |
| 2026-05-08 07:59 | 47.10928 | 31.99840 | 755 ft | 140 kts | 218° |
| 2026-05-08 07:59 | 47.10227 | 31.98896 | 589 ft | 134 kts | 222° |
| 2026-05-08 07:59 | 47.09632 | 31.97896 | 376 ft | 126 kts | 230° |
| 2026-05-08 08:00 | 47.09090 | 31.96914 | 410 ft | 127 kts | 222° |
| 2026-05-08 08:00 | 47.08463 | 31.95979 | 413 ft | 122 kts | 224° |
| 2026-05-08 08:00 | 47.07848 | 31.95068 | 505 ft | 128 kts | 217° |
| 2026-05-08 08:00 | 47.07179 | 31.94286 | 316 ft | 123 kts | 218° |
| 2026-05-08 08:01 | 47.06595 | 31.93339 | 238 ft | 127 kts | 225° |
| 2026-05-08 08:01 | 47.06077 | 31.92416 | 207 ft | 96 kts | 230° |
| 2026-05-08 08:01 | 47.05778 | 31.91883 | 204 ft | 37 kts | 230° |
| 2026-05-08 08:01 | 47.05705 | 31.91758 | 210 ft | 6 kts | 214° |
| 2026-05-08 08:02 | 47.05673 | 31.91749 | 207 ft | 4 kts | 184° |
| 2026-05-08 08:02 | 47.05615 | 31.91785 | 198 ft | 11 kts | 141° |
| 2026-05-08 08:02 | 47.05558 | 31.91852 | 207 ft | 10 kts | 141° |
| 2026-05-08 08:02 | 47.05527 | 31.91928 | 200 ft | 8 kts | 94° |
| 2026-05-08 08:03 | 47.05536 | 31.91967 | 195 ft | 2 kts | 58° |
| 2026-05-08 08:03 | 47.05541 | 31.91982 | 207 ft | 0 kts | 54° |
| 2026-05-08 08:03 | 47.05544 | 31.91987 | 207 ft | 0 kts | 54° |